Time;durP1;ratioP1;P1;durP2;ratioP2;P2;SDS_P1;SDS_P2;PMS_P1;PMS_P2;Temp;Humidity;BMP_temperature;BMP_pressure;BME280_temperature;BME280_humidity;BME280_pressure;Samples;Min_cycle;Max_cycle;Signal;HPM_P1;HPM_P2
2023/02/18 00:01:24;;;;;;;87.83;43.70;;;3.10;99.90;;;;;;4145186;28;20391;-65
2023/02/18 00:03:27;;;;;;;92.17;43.93;;;3.20;99.90;;;;;;4159222;28;20306;-63
2023/02/18 00:05:29;;;;;;;85.67;43.70;;;3.10;99.90;;;;;;4159263;28;20320;-68
2023/02/18 00:07:34;;;;;;;84.20;43.23;;;3.10;99.90;;;;;;4159869;28;20291;-69
2023/02/18 00:09:37;;;;;;;80.93;41.83;;;3.20;99.90;;;;;;4160870;28;20329;-64
2023/02/18 00:11:39;;;;;;;86.70;43.50;;;3.20;99.90;;;;;;4161614;28;20270;-71
2023/02/18 00:13:40;;;;;;;86.83;43.40;;;3.20;99.90;;;;;;4160119;28;20345;-66
2023/02/18 00:15:41;;;;;;;85.37;42.50;;;3.10;99.90;;;;;;4161998;28;20251;-69
2023/02/18 00:17:42;;;;;;;90.13;44.03;;;3.20;99.90;;;;;;4157643;28;20274;-65
2023/02/18 00:19:43;;;;;;;88.20;45.30;;;3.20;99.90;;;;;;4148928;28;20696;-64
2023/02/18 00:21:46;;;;;;;84.17;43.67;;;3.20;99.90;;;;;;4152749;28;20794;-71
2023/02/18 00:23:47;;;;;;;92.33;48.67;;;3.20;99.90;;;;;;4145394;28;20275;-64
2023/02/18 00:25:48;;;;;;;91.53;45.93;;;3.20;99.90;;;;;;4142993;28;20314;-64
2023/02/18 00:27:49;;;;;;;94.30;49.50;;;3.20;99.90;;;;;;4149204;28;20332;-71
2023/02/18 00:29:50;;;;;;;90.20;44.80;;;3.20;99.90;;;;;;4160486;28;20250;-70
2023/02/18 00:31:51;;;;;;;88.20;44.83;;;3.20;99.90;;;;;;4150183;28;20334;-71
2023/02/18 00:33:53;;;;;;;86.80;46.03;;;3.10;99.90;;;;;;4143869;28;20267;-64
2023/02/18 00:36:04;;;;;;;83.47;42.67;;;3.00;99.90;;;;;;4158925;28;20420;-72
2023/02/18 00:38:05;;;;;;;83.93;43.95;;;2.90;99.90;;;;;;4149053;28;20363;-64
2023/02/18 00:40:07;;;;;;;87.57;43.77;;;2.80;99.90;;;;;;4151259;28;20448;-65
2023/02/18 00:42:08;;;;;;;87.27;42.03;;;2.70;99.90;;;;;;4150007;28;20341;-68
2023/02/18 00:44:11;;;;;;;89.77;42.70;;;2.70;99.90;;;;;;4144411;28;20297;-63
2023/02/18 00:46:13;;;;;;;89.37;44.70;;;2.60;99.90;;;;;;4145316;28;20267;-62
2023/02/18 00:48:14;;;;;;;87.40;43.30;;;2.60;99.90;;;;;;4144175;28;21280;-62
2023/02/18 00:50:15;;;;;;;91.33;45.03;;;2.60;99.90;;;;;;4147313;28;20289;-62
2023/02/18 00:52:16;;;;;;;87.67;44.43;;;2.60;99.90;;;;;;4154032;28;20329;-64
2023/02/18 00:54:17;;;;;;;95.60;47.03;;;2.60;99.90;;;;;;4145386;28;20263;-64
2023/02/18 00:56:19;;;;;;;93.90;45.53;;;2.50;99.90;;;;;;4144214;28;20271;-70
2023/02/18 00:58:20;;;;;;;97.93;48.43;;;2.50;99.90;;;;;;4152908;28;20345;-62
2023/02/18 01:00:24;;;;;;;100.00;49.60;;;2.40;99.90;;;;;;4160442;28;20321;-66
2023/02/18 01:02:25;;;;;;;92.37;45.67;;;2.40;99.90;;;;;;4161653;28;20286;-71
2023/02/18 01:04:26;;;;;;;99.87;47.47;;;2.50;99.90;;;;;;4156174;28;20694;-72
2023/02/18 01:06:27;;;;;;;102.17;49.03;;;2.40;99.90;;;;;;4144623;28;20275;-68
2023/02/18 01:08:28;;;;;;;105.83;51.47;;;2.40;99.90;;;;;;4152456;28;20333;-69
2023/02/18 01:10:30;;;;;;;112.83;51.70;;;2.40;99.90;;;;;;4160915;28;20267;-72
2023/02/18 01:12:32;;;;;;;108.37;49.73;;;2.40;99.90;;;;;;4159042;28;20283;-63
2023/02/18 01:14:33;;;;;;;99.63;51.27;;;2.40;99.90;;;;;;4160125;28;20347;-71
2023/02/18 01:16:34;;;;;;;107.80;51.07;;;2.40;99.90;;;;;;4160953;28;20294;-72
2023/02/18 01:18:36;;;;;;;104.77;52.23;;;2.40;99.90;;;;;;4160011;28;20832;-70
2023/02/18 01:20:40;;;;;;;108.63;50.90;;;2.40;99.90;;;;;;4156209;28;20279;-69
2023/02/18 01:22:41;;;;;;;104.57;50.80;;;2.40;99.90;;;;;;4144310;28;20313;-64
2023/02/18 01:24:42;;;;;;;110.10;49.80;;;2.40;99.90;;;;;;4145194;28;20817;-72
2023/02/18 01:26:44;;;;;;;106.50;52.23;;;2.40;99.90;;;;;;4143778;28;20264;-71
2023/02/18 01:28:45;;;;;;;112.60;53.57;;;2.40;99.90;;;;;;4145144;28;20345;-71
2023/02/18 01:30:46;;;;;;;111.67;51.67;;;2.40;99.90;;;;;;4144961;28;20698;-63
2023/02/18 01:32:47;;;;;;;111.80;51.40;;;2.40;99.90;;;;;;4155393;28;20336;-62
2023/02/18 01:34:48;;;;;;;107.00;49.93;;;2.40;99.90;;;;;;4149484;28;20275;-65
2023/02/18 01:36:49;;;;;;;102.17;49.33;;;2.30;99.90;;;;;;4145778;28;20279;-64
2023/02/18 01:38:52;;;;;;;101.73;49.10;;;2.30;99.90;;;;;;4145057;28;20276;-62
2023/02/18 01:40:53;;;;;;;106.27;49.77;;;2.30;99.90;;;;;;4155801;28;20298;-62
2023/02/18 01:42:55;;;;;;;102.53;48.90;;;2.30;99.90;;;;;;4153808;28;20822;-67
2023/02/18 01:45:33;;;;;;;111.83;50.53;;;2.40;99.90;;;;;;4150635;28;20271;-73
2023/02/18 01:47:34;;;;;;;104.40;48.73;;;2.40;99.90;;;;;;4148057;28;20283;-63
2023/02/18 01:49:37;;;;;;;104.60;48.23;;;2.40;99.90;;;;;;4160428;28;20275;-71
2023/02/18 01:51:43;;;;;;;107.90;53.00;;;2.40;99.90;;;;;;4160640;28;20271;-69
2023/02/18 01:53:46;;;;;;;108.33;51.43;;;2.40;99.90;;;;;;4147312;28;20272;-67
2023/02/18 01:55:48;;;;;;;115.00;54.47;;;2.50;99.90;;;;;;4147232;28;20797;-62
2023/02/18 01:57:49;;;;;;;111.97;52.90;;;2.50;99.90;;;;;;4150796;28;20286;-73
2023/02/18 02:00:07;;;;;;;109.50;50.97;;;2.50;99.90;;;;;;4159439;28;20752;-72
2023/02/18 02:02:14;;;;;;;109.53;49.90;;;2.50;99.90;;;;;;4145834;28;20307;-66
2023/02/18 02:04:15;;;;;;;103.67;50.13;;;2.50;99.90;;;;;;4153505;28;20792;-69
2023/02/18 02:06:21;;;;;;;100.00;50.73;;;2.50;99.90;;;;;;4158647;28;20337;-69
2023/02/18 02:08:22;;;;;;;104.80;49.83;;;2.50;99.90;;;;;;4147143;28;20333;-73
2023/02/18 02:10:26;;;;;;;106.03;51.30;;;2.60;99.90;;;;;;4147341;28;20733;-63
2023/02/18 02:13:06;;;;;;;106.00;51.50;;;2.60;99.90;;;;;;4147655;28;20263;-62
2023/02/18 02:15:28;;;;;;;101.57;47.97;;;2.70;99.90;;;;;;4148608;28;20275;-64
2023/02/18 02:17:59;;;;;;;100.43;49.27;;;2.70;99.90;;;;;;4161589;28;20662;-62
2023/02/18 02:20:23;;;;;;;99.57;47.80;;;2.70;99.90;;;;;;4163375;28;20682;-63
2023/02/18 02:23:01;;;;;;;109.00;48.97;;;2.70;99.90;;;;;;4150657;28;21013;-62
2023/02/18 02:25:05;;;;;;;103.10;50.73;;;2.80;99.90;;;;;;4123053;28;20268;-62
2023/02/18 02:27:47;;;;;;;105.33;50.20;;;2.80;99.90;;;;;;4129584;28;20699;-64
2023/02/18 02:30:17;;;;;;;105.70;50.43;;;2.80;99.90;;;;;;4131004;28;20778;-63
2023/02/18 02:32:39;;;;;;;94.90;46.50;;;2.80;99.90;;;;;;4140558;28;20271;-71
2023/02/18 02:35:09;;;;;;;99.67;48.70;;;2.80;99.90;;;;;;4159383;28;20816;-63
2023/02/18 02:37:24;;;;;;;107.20;48.42;;;2.80;99.90;;;;;;4161090;28;20286;-63
2023/02/18 02:40:02;;;;;;;98.60;47.47;;;2.80;99.90;;;;;;4145484;28;20079;-63
2023/02/18 02:42:25;;;;;;;95.00;47.30;;;2.90;99.90;;;;;;4159225;28;20302;-63
2023/02/18 02:45:02;;;;;;;96.30;45.70;;;2.80;99.90;;;;;;4161966;28;20279;-63
2023/02/18 02:47:31;;;;;;;94.50;45.47;;;2.80;99.90;;;;;;4144357;28;20321;-73
2023/02/18 02:49:57;;;;;;;98.93;45.60;;;2.90;99.90;;;;;;4126537;28;20295;-63
2023/02/18 02:52:08;;;;;;;90.57;45.17;;;2.90;99.90;;;;;;4147121;28;20681;-62
2023/02/18 02:54:20;;;;;;;98.33;46.53;;;2.90;99.90;;;;;;4135208;28;20770;-62
2023/02/18 02:56:24;;;;;;;94.07;46.60;;;3.00;99.90;;;;;;4145196;28;20298;-62
2023/02/18 02:58:26;;;;;;;88.90;43.73;;;3.00;99.90;;;;;;4146135;28;20321;-64
2023/02/18 03:00:43;;;;;;;93.67;45.27;;;3.00;99.90;;;;;;4146931;28;20281;-71
2023/02/18 03:03:25;;;;;;;94.30;46.93;;;3.00;99.90;;;;;;4162031;28;20364;-63
2023/02/18 03:05:42;;;;;;;89.20;44.53;;;3.00;99.90;;;;;;4143068;28;20275;-63
2023/02/18 03:08:02;;;;;;;88.73;44.30;;;3.00;99.90;;;;;;4130164;28;20288;-64
2023/02/18 03:10:03;;;;;;;97.30;45.20;;;3.10;99.90;;;;;;4137563;28;20325;-66
2023/02/18 03:12:29;;;;;;;99.17;47.40;;;3.10;99.90;;;;;;4152992;28;20679;-69
2023/02/18 03:15:00;;;;;;;95.50;47.97;;;3.10;99.90;;;;;;4139169;28;20358;-63
2023/02/18 03:17:14;;;;;;;89.85;44.78;;;3.10;99.90;;;;;;4135414;28;20744;-64
2023/02/18 03:19:36;;;;;;;89.20;46.10;;;3.10;99.90;;;;;;4156352;28;20095;-63
2023/02/18 03:21:44;;;;;;;95.73;48.03;;;3.10;99.90;;;;;;4157343;28;20302;-63
2023/02/18 03:23:57;;;;;;;98.83;50.60;;;3.10;99.90;;;;;;4146709;28;20291;-63
2023/02/18 03:25:59;;;;;;;97.40;48.60;;;3.10;99.90;;;;;;4146258;28;20326;-63
2023/02/18 03:28:13;;;;;;;100.10;49.43;;;3.10;99.90;;;;;;4150063;28;20769;-63
2023/02/18 03:30:16;;;;;;;103.67;50.07;;;3.10;99.90;;;;;;4162720;28;20631;-73
2023/02/18 03:32:20;;;;;;;111.13;52.27;;;3.00;99.90;;;;;;4161374;28;20282;-65
2023/02/18 03:34:29;;;;;;;113.97;54.53;;;3.00;99.90;;;;;;4159570;28;20274;-65
2023/02/18 03:36:33;;;;;;;102.77;50.23;;;3.00;99.90;;;;;;4147225;28;20318;-69
2023/02/18 03:38:39;;;;;;;107.90;53.30;;;3.00;99.90;;;;;;4147054;28;20256;-64
2023/02/18 03:40:40;;;;;;;114.10;55.03;;;3.00;99.90;;;;;;4144859;28;20743;-68
2023/02/18 03:42:41;;;;;;;111.10;53.00;;;3.00;99.90;;;;;;4143927;28;20322;-71
2023/02/18 03:44:43;;;;;;;109.50;52.23;;;3.00;99.90;;;;;;4144414;28;20338;-64
2023/02/18 03:46:44;;;;;;;110.30;53.83;;;3.00;99.90;;;;;;4146090;28;20275;-65
2023/02/18 03:48:45;;;;;;;121.83;56.80;;;3.00;99.90;;;;;;4144832;28;20317;-68
2023/02/18 03:50:47;;;;;;;109.80;52.90;;;3.00;99.90;;;;;;4158416;28;20287;-68
2023/02/18 03:52:48;;;;;;;112.93;53.77;;;3.00;99.90;;;;;;4161561;28;20332;-65
2023/02/18 03:54:49;;;;;;;105.40;51.40;;;3.00;99.90;;;;;;4161978;28;20270;-64
2023/02/18 03:56:50;;;;;;;114.43;53.83;;;3.00;99.90;;;;;;4161376;28;20329;-73
2023/02/18 03:58:52;;;;;;;114.77;54.03;;;3.00;99.90;;;;;;4148508;28;20294;-70
2023/02/18 04:00:53;;;;;;;107.30;51.97;;;3.10;99.90;;;;;;4145703;28;20329;-68
2023/02/18 04:02:55;;;;;;;105.80;51.33;;;3.10;99.90;;;;;;4144545;28;20354;-69
2023/02/18 04:04:56;;;;;;;109.53;54.83;;;3.10;99.90;;;;;;4145114;28;20674;-68
2023/02/18 04:06:57;;;;;;;95.00;47.80;;;3.10;99.90;;;;;;4144263;28;20889;-63
2023/02/18 04:08:59;;;;;;;98.57;49.87;;;3.10;99.90;;;;;;4157373;28;20682;-66
2023/02/18 04:11:00;;;;;;;92.93;45.40;;;3.00;99.90;;;;;;4160805;28;20283;-70
2023/02/18 04:13:03;;;;;;;91.67;44.90;;;3.00;99.90;;;;;;4148220;28;20295;-72
2023/02/18 04:15:04;;;;;;;92.80;45.80;;;3.00;99.90;;;;;;4143792;28;20260;-63
2023/02/18 04:17:05;;;;;;;94.37;45.03;;;3.00;99.90;;;;;;4145581;28;21108;-72
2023/02/18 04:19:06;;;;;;;94.63;46.30;;;2.90;99.90;;;;;;4144436;28;20770;-74
2023/02/18 04:21:07;;;;;;;98.57;48.50;;;3.00;99.90;;;;;;4145326;28;20400;-75
2023/02/18 04:23:09;;;;;;;102.60;49.47;;;3.00;99.90;;;;;;4144539;28;20350;-72
2023/02/18 04:25:10;;;;;;;95.50;48.30;;;2.90;99.90;;;;;;4153689;28;20833;-74
2023/02/18 04:27:11;;;;;;;99.10;51.17;;;2.90;99.90;;;;;;4144979;28;20264;-66
2023/02/18 04:29:12;;;;;;;96.57;48.00;;;3.00;99.90;;;;;;4157692;28;20715;-73
2023/02/18 04:31:14;;;;;;;96.63;45.60;;;2.90;99.90;;;;;;4161272;28;20324;-75
2023/02/18 04:33:15;;;;;;;94.30;45.70;;;3.00;99.90;;;;;;4159576;28;20612;-75
2023/02/18 04:35:16;;;;;;;102.80;48.97;;;3.00;99.90;;;;;;4161392;28;20316;-76
2023/02/18 04:37:17;;;;;;;101.80;49.33;;;3.00;99.90;;;;;;4156519;28;20287;-76
2023/02/18 04:39:18;;;;;;;101.77;49.37;;;3.00;99.90;;;;;;4156564;28;20778;-71
2023/02/18 04:41:20;;;;;;;93.37;47.30;;;3.00;99.90;;;;;;4160351;28;20329;-74
2023/02/18 04:43:21;;;;;;;100.07;49.03;;;2.90;99.90;;;;;;4151600;28;20275;-72
2023/02/18 04:45:23;;;;;;;96.07;48.17;;;2.90;99.90;;;;;;4144657;28;20674;-70
2023/02/18 04:47:24;;;;;;;105.23;50.73;;;2.90;99.90;;;;;;4159178;28;20287;-68
2023/02/18 04:49:25;;;;;;;103.13;49.63;;;2.90;99.90;;;;;;4152739;28;20489;-75
2023/02/18 04:51:27;;;;;;;99.37;47.30;;;2.90;99.90;;;;;;4147729;28;20841;-71
2023/02/18 04:53:28;;;;;;;93.57;47.00;;;2.90;99.90;;;;;;4148005;28;20389;-68
2023/02/18 04:55:29;;;;;;;103.93;50.97;;;2.90;99.90;;;;;;4147123;28;20326;-75
2023/02/18 04:57:30;;;;;;;98.87;50.63;;;2.80;99.90;;;;;;4146969;28;20275;-74
2023/02/18 04:59:31;;;;;;;109.83;51.40;;;2.80;99.90;;;;;;4160246;28;20278;-74
2023/02/18 05:01:32;;;;;;;107.73;52.47;;;2.80;99.90;;;;;;4159678;28;20262;-74
2023/02/18 05:03:34;;;;;;;108.83;53.30;;;2.80;99.90;;;;;;4148141;28;20389;-75
2023/02/18 05:05:35;;;;;;;107.40;52.53;;;2.70;99.90;;;;;;4159176;28;20278;-76
2023/02/18 05:07:36;;;;;;;111.60;55.07;;;2.70;99.90;;;;;;4143884;28;20306;-74
2023/02/18 05:09:37;;;;;;;114.40;53.70;;;2.70;99.90;;;;;;4146137;28;20275;-73
2023/02/18 05:11:39;;;;;;;118.10;54.60;;;2.70;99.90;;;;;;4143975;28;20267;-73
2023/02/18 05:13:40;;;;;;;109.67;53.57;;;2.70;99.90;;;;;;4145091;28;20809;-73
2023/02/18 05:15:41;;;;;;;111.13;53.03;;;2.70;99.90;;;;;;4145543;28;20312;-71
2023/02/18 05:17:42;;;;;;;111.43;52.73;;;2.70;99.90;;;;;;4144539;28;20279;-74
2023/02/18 05:19:43;;;;;;;120.27;51.90;;;2.70;99.90;;;;;;4146091;28;20306;-72
2023/02/18 05:21:45;;;;;;;105.30;51.33;;;2.70;99.90;;;;;;4148033;28;20263;-73
2023/02/18 05:23:46;;;;;;;115.20;52.47;;;2.70;99.90;;;;;;4148802;28;20345;-69
2023/02/18 05:25:47;;;;;;;114.07;53.37;;;2.70;99.90;;;;;;4148686;28;20348;-73
2023/02/18 05:27:48;;;;;;;111.10;52.00;;;2.60;99.90;;;;;;4147501;28;20667;-73
2023/02/18 05:29:49;;;;;;;108.57;51.73;;;2.60;99.90;;;;;;4146956;28;20747;-62
2023/02/18 05:31:50;;;;;;;113.93;52.47;;;2.60;99.90;;;;;;4148845;28;20280;-74
2023/02/18 05:33:52;;;;;;;112.07;51.43;;;2.50;99.90;;;;;;4146573;28;20283;-75
2023/02/18 05:35:53;;;;;;;116.07;52.27;;;2.50;99.90;;;;;;4150702;28;20678;-77
2023/02/18 05:37:54;;;;;;;121.10;55.40;;;2.50;99.90;;;;;;4158520;28;20328;-74
2023/02/18 05:39:55;;;;;;;114.80;52.93;;;2.50;99.90;;;;;;4149347;28;20341;-73
2023/02/18 05:41:56;;;;;;;119.77;54.07;;;2.50;99.90;;;;;;4148925;28;20291;-70
2023/02/18 05:46:17;;;;;;;117.73;54.40;;;2.50;99.90;;;;;;4135799;28;20724;-69
2023/02/18 05:48:18;;;;;;;124.80;56.70;;;2.50;99.90;;;;;;4161385;28;20337;-75
2023/02/18 05:50:19;;;;;;;120.57;56.77;;;2.60;99.90;;;;;;4137958;28;20288;-63
2023/02/18 05:52:21;;;;;;;124.17;55.83;;;2.60;99.90;;;;;;4131092;28;20279;-69
2023/02/18 05:54:22;;;;;;;123.83;58.20;;;2.60;99.90;;;;;;4161085;28;20329;-81
2023/02/18 05:56:23;;;;;;;128.20;58.77;;;2.60;99.90;;;;;;4147126;28;20329;-73
2023/02/18 05:58:24;;;;;;;124.57;60.43;;;2.60;99.90;;;;;;4146395;28;20247;-68
2023/02/18 06:00:25;;;;;;;133.50;60.43;;;2.60;99.90;;;;;;4148340;28;20751;-71
2023/02/18 06:02:26;;;;;;;122.50;57.40;;;2.60;99.90;;;;;;4156733;28;20295;-74
2023/02/18 06:04:28;;;;;;;130.87;60.10;;;2.60;99.90;;;;;;4147651;28;20752;-76
2023/02/18 06:06:29;;;;;;;131.37;61.20;;;2.70;99.90;;;;;;4147579;28;20373;-72
2023/02/18 06:08:30;;;;;;;120.87;56.37;;;2.80;99.90;;;;;;4146759;28;20294;-69
2023/02/18 06:10:31;;;;;;;133.13;60.07;;;2.80;99.90;;;;;;4147876;28;20311;-74
2023/02/18 06:12:32;;;;;;;128.50;59.83;;;2.90;99.90;;;;;;4155574;28;20278;-72
2023/02/18 06:14:33;;;;;;;126.50;57.90;;;3.00;99.90;;;;;;4162711;28;20317;-76
2023/02/18 06:16:34;;;;;;;127.27;59.20;;;3.10;99.90;;;;;;4145793;28;20286;-74
2023/02/18 06:18:36;;;;;;;127.97;59.20;;;3.00;99.90;;;;;;4151987;28;20671;-77
2023/02/18 06:20:38;;;;;;;130.97;60.77;;;3.10;99.90;;;;;;4162072;28;20275;-77
2023/02/18 06:22:40;;;;;;;119.03;57.80;;;3.10;99.90;;;;;;4163659;28;20332;-80
2023/02/18 06:24:41;;;;;;;121.20;58.37;;;3.10;99.90;;;;;;4159761;28;20341;-76
2023/02/18 06:26:43;;;;;;;125.97;58.93;;;3.10;99.90;;;;;;4161497;28;20270;-66
2023/02/18 06:28:44;;;;;;;119.33;57.17;;;3.20;99.90;;;;;;4162926;28;20259;-73
2023/02/18 06:30:45;;;;;;;122.57;56.47;;;3.30;99.90;;;;;;4152610;28;20426;-72
2023/02/18 06:32:46;;;;;;;113.57;57.67;;;3.40;99.90;;;;;;4147583;28;20592;-74
2023/02/18 06:34:47;;;;;;;103.57;50.60;;;3.40;99.90;;;;;;4160710;28;20295;-72
2023/02/18 06:36:49;;;;;;;110.70;54.70;;;3.50;99.90;;;;;;4160194;28;20305;-71
2023/02/18 06:38:50;;;;;;;115.93;56.57;;;3.70;99.90;;;;;;4157738;28;20666;-75
2023/02/18 06:40:51;;;;;;;117.03;58.97;;;3.70;99.90;;;;;;4160037;28;20275;-61
2023/02/18 06:42:52;;;;;;;116.97;59.03;;;3.80;99.90;;;;;;4161336;28;20336;-77
2023/02/18 06:44:54;;;;;;;128.47;65.03;;;3.80;99.90;;;;;;4163335;28;20282;-68
2023/02/18 06:46:56;;;;;;;142.83;70.13;;;3.90;99.90;;;;;;4162345;28;20678;-67
2023/02/18 06:48:57;;;;;;;126.20;60.27;;;4.00;99.90;;;;;;4161534;28;20330;-73
2023/02/18 06:50:58;;;;;;;120.87;62.73;;;4.10;99.90;;;;;;4162073;28;20671;-72
2023/02/18 06:52:59;;;;;;;124.87;64.33;;;4.20;99.90;;;;;;4163381;28;20267;-75
2023/02/18 06:55:00;;;;;;;102.53;54.87;;;4.30;99.90;;;;;;4162228;28;20329;-74
2023/02/18 06:57:02;;;;;;;114.03;57.30;;;4.40;99.90;;;;;;4162699;28;20734;-73
2023/02/18 06:59:03;;;;;;;103.90;50.67;;;4.40;99.90;;;;;;4161560;28;20321;-67
2023/02/18 07:01:04;;;;;;;112.47;58.37;;;4.50;99.90;;;;;;4129718;28;20285;-68
2023/02/18 07:03:06;;;;;;;101.30;51.77;;;4.70;99.90;;;;;;4137318;28;20294;-70
2023/02/18 07:05:07;;;;;;;94.30;50.47;;;4.80;99.90;;;;;;4162180;28;20628;-68
2023/02/18 07:07:09;;;;;;;100.33;52.67;;;4.80;99.90;;;;;;4157037;28;20283;-66
2023/02/18 07:09:10;;;;;;;88.40;47.63;;;4.90;99.90;;;;;;4145490;28;20263;-71
2023/02/18 07:11:11;;;;;;;92.37;46.33;;;5.00;99.90;;;;;;4146434;28;20767;-69
2023/02/18 07:13:12;;;;;;;92.13;46.70;;;5.10;99.90;;;;;;4145119;28;20268;-66
2023/02/18 07:15:14;;;;;;;94.33;48.60;;;5.20;99.90;;;;;;4146622;28;20260;-67
2023/02/18 07:17:15;;;;;;;86.60;48.03;;;5.20;99.90;;;;;;4145491;28;20264;-74
2023/02/18 07:19:16;;;;;;;77.13;40.20;;;5.30;99.90;;;;;;4148551;28;20766;-65
2023/02/18 07:21:18;;;;;;;68.27;35.30;;;5.40;99.90;;;;;;4145448;28;20045;-67
2023/02/18 07:23:19;;;;;;;62.10;32.90;;;5.60;99.90;;;;;;4146271;28;20054;-61
2023/02/18 07:25:21;;;;;;;67.53;38.23;;;5.80;99.90;;;;;;4143957;28;20038;-62
2023/02/18 07:27:22;;;;;;;18.07;9.63;;;6.00;99.90;;;;;;4146066;28;20080;-64
2023/02/18 07:29:23;;;;;;;13.53;9.20;;;6.70;99.90;;;;;;4145098;28;20038;-65
2023/02/18 07:31:24;;;;;;;12.03;7.43;;;7.50;99.90;;;;;;4145666;28;20753;-60
2023/02/18 07:33:25;;;;;;;11.50;6.63;;;8.20;99.90;;;;;;4145187;28;20316;-61
2023/02/18 07:35:26;;;;;;;14.63;7.47;;;8.90;99.90;;;;;;4145114;28;20042;-61
2023/02/18 07:37:27;;;;;;;8.20;5.67;;;9.30;99.90;;;;;;4145513;28;20058;-62
2023/02/18 07:39:28;;;;;;;8.97;5.73;;;9.60;99.90;;;;;;4144939;28;20030;-61
2023/02/18 07:41:30;;;;;;;9.30;5.33;;;9.70;99.90;;;;;;4145621;28;20033;-62
2023/02/18 07:43:31;;;;;;;8.47;5.00;;;9.90;99.90;;;;;;4144113;28;20445;-61
2023/02/18 07:45:32;;;;;;;6.80;5.27;;;10.00;99.90;;;;;;4146020;28;20057;-62
2023/02/18 07:47:33;;;;;;;6.93;4.97;;;10.10;99.90;;;;;;4143147;28;20045;-61
2023/02/18 07:49:35;;;;;;;9.10;5.10;;;10.20;99.90;;;;;;4145380;28;20123;-63
2023/02/18 07:51:37;;;;;;;9.70;5.77;;;10.30;99.90;;;;;;4143983;28;20116;-63
2023/02/18 07:53:39;;;;;;;10.33;5.87;;;10.30;99.90;;;;;;4145575;28;20116;-67
2023/02/18 07:55:49;;;;;;;6.70;4.30;;;10.30;99.90;;;;;;4144632;28;20561;-61
2023/02/18 07:57:56;;;;;;;17.42;7.50;;;10.40;99.90;;;;;;4145777;28;20449;-62
2023/02/18 07:59:57;;;;;;;7.40;5.20;;;10.50;99.90;;;;;;4144466;28;20037;-62
2023/02/18 08:01:58;;;;;;;7.30;4.97;;;10.50;99.90;;;;;;4145541;28;20467;-64
2023/02/18 08:03:59;;;;;;;7.37;4.57;;;10.60;99.90;;;;;;4144474;28;20042;-63
2023/02/18 08:06:02;;;;;;;8.23;4.93;;;10.60;99.90;;;;;;4145061;28;20144;-62
2023/02/18 08:08:03;;;;;;;7.77;5.20;;;10.60;99.90;;;;;;4144629;28;20069;-62
2023/02/18 08:10:05;;;;;;;8.90;5.93;;;10.60;99.90;;;;;;4144844;28;20308;-62
2023/02/18 08:12:06;;;;;;;6.90;5.03;;;10.60;99.90;;;;;;4145172;28;20096;-61
2023/02/18 08:14:08;;;;;;;10.83;5.23;;;10.70;99.90;;;;;;4144526;28;20080;-68
2023/02/18 08:16:09;;;;;;;8.43;5.70;;;10.70;99.90;;;;;;4145311;28;20547;-60
2023/02/18 08:18:18;;;;;;;6.60;4.57;;;10.60;99.90;;;;;;4144103;28;20093;-61
2023/02/18 08:20:20;;;;;;;8.63;4.93;;;10.60;99.90;;;;;;4145273;28;20125;-65
2023/02/18 08:22:21;;;;;;;6.53;4.70;;;10.60;99.90;;;;;;4143966;28;20650;-61
2023/02/18 08:24:22;;;;;;;7.47;4.90;;;10.60;99.90;;;;;;4145212;28;20037;-60
2023/02/18 08:26:23;;;;;;;7.10;4.60;;;10.60;99.90;;;;;;4143936;28;20038;-61
2023/02/18 08:28:24;;;;;;;6.87;4.63;;;10.70;99.90;;;;;;4144936;28;20090;-61
2023/02/18 08:30:26;;;;;;;7.93;4.80;;;10.70;99.90;;;;;;4143911;28;20026;-62
2023/02/18 08:32:28;;;;;;;7.33;4.70;;;10.70;99.90;;;;;;4145291;28;20034;-61
2023/02/18 08:34:29;;;;;;;6.87;5.00;;;10.80;99.90;;;;;;4143891;28;20025;-62
2023/02/18 08:36:30;;;;;;;6.87;4.90;;;10.80;99.90;;;;;;4144790;28;20430;-60
2023/02/18 08:38:31;;;;;;;9.07;5.40;;;10.80;99.90;;;;;;4144043;28;20413;-61
2023/02/18 08:40:33;;;;;;;8.40;5.77;;;10.80;99.90;;;;;;4144535;28;20068;-62
2023/02/18 08:42:34;;;;;;;7.70;5.23;;;10.90;99.90;;;;;;4144274;28;20030;-61
2023/02/18 08:44:35;;;;;;;9.03;6.13;;;10.90;99.90;;;;;;4144231;28;20620;-60
2023/02/18 08:46:36;;;;;;;8.43;5.43;;;10.90;99.90;;;;;;4144645;28;20437;-62
2023/02/18 08:48:37;;;;;;;8.67;5.90;;;10.90;99.90;;;;;;4143691;28;20041;-63
2023/02/18 08:50:38;;;;;;;11.00;7.60;;;11.00;99.90;;;;;;4145145;28;20073;-60
2023/02/18 08:52:40;;;;;;;10.37;7.50;;;11.00;99.90;;;;;;4143374;28;20522;-60
2023/02/18 08:54:41;;;;;;;6.80;4.80;;;11.00;99.90;;;;;;4145535;28;20034;-62
2023/02/18 08:56:42;;;;;;;6.40;4.53;;;11.00;99.90;;;;;;4147216;28;20432;-61
2023/02/18 08:58:43;;;;;;;6.97;4.70;;;11.10;99.90;;;;;;4148497;28;20026;-61
2023/02/18 09:00:44;;;;;;;7.33;4.77;;;11.00;99.90;;;;;;4147288;28;20038;-61
2023/02/18 09:02:46;;;;;;;6.77;4.20;;;11.10;99.90;;;;;;4148185;28;20084;-61
2023/02/18 09:04:49;;;;;;;8.20;4.73;;;11.00;99.90;;;;;;4147361;28;20029;-60
2023/02/18 09:06:50;;;;;;;7.10;5.13;;;11.00;99.90;;;;;;4147669;28;20050;-64
2023/02/18 09:08:51;;;;;;;5.33;4.60;;;11.00;99.90;;;;;;4147155;28;20425;-61
2023/02/18 09:11:03;;;;;;;7.53;4.63;;;11.00;99.90;;;;;;4147728;28;20645;-64
2023/02/18 09:13:04;;;;;;;10.47;5.57;;;10.90;99.90;;;;;;4146882;28;20034;-64
2023/02/18 09:15:06;;;;;;;6.10;4.47;;;10.90;99.90;;;;;;4147701;28;20076;-63
2023/02/18 09:17:07;;;;;;;6.17;4.43;;;10.90;99.90;;;;;;4147130;28;20402;-63
2023/02/18 09:19:08;;;;;;;7.87;4.30;;;10.90;99.90;;;;;;4147194;28;20045;-61
2023/02/18 09:21:11;;;;;;;6.60;4.20;;;10.90;99.90;;;;;;4147800;28;20030;-62
2023/02/18 09:23:14;;;;;;;6.80;5.00;;;10.90;99.90;;;;;;4146615;28;20096;-62
2023/02/18 09:25:15;;;;;;;7.50;5.03;;;11.00;99.90;;;;;;4147748;28;20046;-62
2023/02/18 09:27:16;;;;;;;7.10;4.80;;;11.00;99.90;;;;;;4146727;28;20177;-63
2023/02/18 09:29:18;;;;;;;6.77;4.67;;;11.00;99.90;;;;;;4147842;28;20084;-62
2023/02/18 09:31:22;;;;;;;7.90;4.87;;;11.00;99.90;;;;;;4146684;28;20106;-62
2023/02/18 09:33:24;;;;;;;8.03;5.20;;;11.00;99.90;;;;;;4147726;28;20025;-62
2023/02/18 09:35:25;;;;;;;5.10;3.97;;;11.00;99.90;;;;;;4146791;28;20375;-62
2023/02/18 09:37:26;;;;;;;8.60;4.40;;;11.00;99.90;;;;;;4147413;28;20544;-61
2023/02/18 09:39:27;;;;;;;10.10;4.00;;;11.00;99.90;;;;;;4146431;28;20033;-62
2023/02/18 09:41:47;;;;;;;7.20;4.40;;;11.00;99.90;;;;;;4147344;28;20091;-61
2023/02/18 09:43:51;;;;;;;5.88;4.55;;;11.10;99.90;;;;;;4146248;28;20050;-62
2023/02/18 09:45:53;;;;;;;8.13;3.80;;;11.10;99.90;;;;;;4147304;28;20179;-61
2023/02/18 09:47:54;;;;;;;6.97;4.50;;;11.10;99.90;;;;;;4146485;28;20340;-62
2023/02/18 09:50:00;;;;;;;7.17;4.37;;;11.10;99.90;;;;;;4147447;28;20030;-65
2023/02/18 09:52:10;;;;;;;6.77;5.17;;;11.10;99.90;;;;;;4146265;28;20030;-62
2023/02/18 09:54:15;;;;;;;10.93;6.63;;;11.20;99.90;;;;;;4145571;28;20088;-61
2023/02/18 09:56:25;;;;;;;7.67;4.70;;;11.20;99.90;;;;;;4146130;28;20080;-60
2023/02/18 09:58:30;;;;;;;8.00;5.30;;;11.30;99.90;;;;;;4146646;28;20050;-61
2023/02/18 10:00:36;;;;;;;8.07;5.37;;;11.30;99.90;;;;;;4145442;28;20030;-62
2023/02/18 10:02:40;;;;;;;10.83;7.20;;;11.30;99.90;;;;;;4145765;28;20037;-63
2023/02/18 10:04:50;;;;;;;10.07;6.50;;;11.20;99.90;;;;;;4146697;28;20096;-62
2023/02/18 10:06:53;;;;;;;14.65;8.55;;;11.20;99.90;;;;;;4145867;28;20092;-61
2023/02/18 10:08:55;;;;;;;11.70;7.77;;;11.20;99.90;;;;;;4146269;28;20143;-62
2023/02/18 10:10:56;;;;;;;11.80;8.17;;;11.20;99.90;;;;;;4146185;28;20026;-64
2023/02/18 10:12:58;;;;;;;9.33;6.97;;;11.20;99.90;;;;;;4145525;28;20301;-62
2023/02/18 10:15:01;;;;;;;9.27;5.70;;;11.20;99.90;;;;;;4145444;28;20033;-62
2023/02/18 10:17:03;;;;;;;7.10;5.80;;;11.20;99.90;;;;;;4146949;28;20104;-61
2023/02/18 10:19:28;;;;;;;9.60;6.30;;;11.20;99.90;;;;;;4145993;28;20022;-61
2023/02/18 10:21:33;;;;;;;8.07;4.83;;;11.20;99.90;;;;;;4146612;28;20034;-63
2023/02/18 10:23:41;;;;;;;8.20;5.00;;;11.20;99.90;;;;;;4145312;28;20057;-69
2023/02/18 10:25:45;;;;;;;7.00;5.07;;;11.20;99.90;;;;;;4146893;28;20088;-62
2023/02/18 10:27:48;;;;;;;6.80;4.77;;;11.20;99.90;;;;;;4145104;28;20510;-62
2023/02/18 10:29:50;;;;;;;7.30;5.50;;;11.10;99.90;;;;;;4146789;28;20029;-63
2023/02/18 10:32:00;;;;;;;7.40;5.30;;;11.10;99.90;;;;;;4145199;28;20111;-66
2023/02/18 10:34:30;;;;;;;12.90;6.30;;;11.10;99.90;;;;;;4146680;28;20030;-63
2023/02/18 10:37:15;;;;;;;10.70;6.57;;;11.10;99.90;;;;;;4144278;28;20107;-63
2023/02/18 10:39:16;;;;;;;9.63;6.27;;;11.10;99.90;;;;;;4137340;28;20272;-62
2023/02/18 10:41:33;;;;;;;8.00;5.50;;;11.10;99.90;;;;;;4145801;28;20065;-63